< < Back
Terminal Aerodrome Forecast


Current Version              Previous Versions:   1  2  3  4  5  6  7  8  9  

Terminal Aerodrome Forecast

742
FTUS42 KCHS 280526
TAFCHS
TAF
KCHS 280526Z 2806/2906 05005KT P6SM SCT030 BKN050
     FM281500 05010KT P6SM VCSH SCT025 BKN040
     FM282000 05012G19KT P6SM -SHRA SCT025 BKN035
     FM290100 04009KT P6SM VCSH SCT015 BKN025=

Latest METAR

090
SAUS80 KWBC 281000
MTRCHS
METAR KCHS 280956Z 02005KT 10SM FEW080 SCT140 21/19 A3007 RMK AO2 SLP183
T02110194


USA.gov is the U.S. government's official web portal to all federal, state and local government web resources and services.